ACA7042 KTPA-KBUF
Flight info
| Callsign | ACA7042 |
|---|---|
| Flight time | 2h 13m |
| Altitude | 39000 |
| Route | BAYPO2 CAMJO Q99 HEPAR IRQ BURGG HVQ Q145 FOXEE DKK |
| Aircraft | A320/M-SDE3FGHIRWY/LB1 |
Departure
| Time | 2026-05-04 16:28 |
|---|---|
| Airport | Tampa International Airport (KTPA) |
Arrival
| Time | 2026-05-04 18:41 |
|---|---|
| Airport | Buffalo Niagara International Airport (KBUF) |
| Time | Latitude | Longitude | Altitude | Speed | Heading |
|---|---|---|---|---|---|
| 2026-05-04 16:02 | 27.96715 | -82.52639 | 29 ft | 0 kts | 90° |
| 2026-05-04 16:17 | 27.96715 | -82.52649 | 29 ft | 4 kts | 109° |
| 2026-05-04 16:18 | 27.96728 | -82.52657 | 29 ft | 0 kts | 182° |
| 2026-05-04 16:20 | 27.96727 | -82.52657 | 29 ft | 0 kts | 182° |
| 2026-05-04 16:22 | 27.96704 | -82.52677 | 29 ft | 5 kts | 217° |
| 2026-05-04 16:22 | 27.96629 | -82.52695 | 29 ft | 2 kts | 182° |
| 2026-05-04 16:23 | 27.96437 | -82.52736 | 27 ft | 12 kts | 258° |
| 2026-05-04 16:24 | 27.96440 | -82.52783 | 27 ft | 0 kts | 274° |
| 2026-05-04 16:25 | 27.96440 | -82.52785 | 27 ft | 2 kts | 274° |
| 2026-05-04 16:26 | 27.96510 | -82.52896 | 26 ft | 0 kts | 358° |
| 2026-05-04 16:26 | 27.96639 | -82.52891 | 27 ft | 55 kts | 3° |
| 2026-05-04 16:27 | 27.98373 | -82.52814 | 250 ft | 167 kts | 2° |
| 2026-05-04 16:28 | 28.00253 | -82.55877 | 2407 ft | 211 kts | 285° |
| 2026-05-04 16:28 | 28.04064 | -82.58297 | 4443 ft | 240 kts | 2° |
| 2026-05-04 16:29 | 28.11483 | -82.57976 | 7900 ft | 283 kts | 359° |
| 2026-05-04 16:30 | 28.17586 | -82.57699 | 10411 ft | 312 kts | 358° |
| 2026-05-04 16:31 | 28.22214 | -82.57590 | 11289 ft | 351 kts | 355° |
| 2026-05-04 16:31 | 28.29687 | -82.57850 | 13796 ft | 365 kts | 354° |
| 2026-05-04 16:32 | 28.37424 | -82.58122 | 15992 ft | 378 kts | 354° |
| 2026-05-04 16:33 | 28.42763 | -82.58258 | 17427 ft | 386 kts | 354° |
| 2026-05-04 16:33 | 28.48172 | -82.58389 | 18759 ft | 394 kts | 353° |
| 2026-05-04 16:34 | 28.53697 | -82.58522 | 20003 ft | 401 kts | 353° |
| 2026-05-04 16:34 | 28.56507 | -82.58589 | 20639 ft | 405 kts | 353° |
| 2026-05-04 16:35 | 28.65083 | -82.58804 | 22480 ft | 415 kts | 352° |
| 2026-05-04 16:35 | 28.73717 | -82.59775 | 24126 ft | 420 kts | 346° |
| 2026-05-04 16:36 | 28.76640 | -82.60185 | 24596 ft | 423 kts | 346° |
| 2026-05-04 16:36 | 28.82495 | -82.61012 | 25474 ft | 428 kts | 346° |
| 2026-05-04 16:37 | 28.88463 | -82.61849 | 26340 ft | 433 kts | 346° |
| 2026-05-04 16:37 | 28.91452 | -82.62265 | 26750 ft | 436 kts | 345° |
| 2026-05-04 16:37 | 28.97537 | -82.63106 | 27564 ft | 442 kts | 345° |
| 2026-05-04 16:38 | 29.03680 | -82.63967 | 28338 ft | 447 kts | 345° |
| 2026-05-04 16:39 | 29.12982 | -82.65288 | 29410 ft | 455 kts | 345° |
| 2026-05-04 16:39 | 29.19323 | -82.66175 | 30060 ft | 460 kts | 345° |
| 2026-05-04 16:40 | 29.25688 | -82.67063 | 30613 ft | 464 kts | 344° |
| 2026-05-04 16:40 | 29.32136 | -82.67961 | 31171 ft | 465 kts | 344° |
| 2026-05-04 16:41 | 29.38506 | -82.68853 | 31884 ft | 462 kts | 343° |
| 2026-05-04 16:41 | 29.48235 | -82.69291 | 32945 ft | 469 kts | 349° |
| 2026-05-04 16:42 | 29.57985 | -82.69216 | 34001 ft | 466 kts | 349° |
| 2026-05-04 16:43 | 29.64499 | -82.69171 | 34620 ft | 466 kts | 348° |
| 2026-05-04 16:43 | 29.70968 | -82.69144 | 35148 ft | 467 kts | 348° |
| 2026-05-04 16:43 | 29.74234 | -82.69128 | 35396 ft | 468 kts | 348° |
| 2026-05-04 16:44 | 29.87310 | -82.69042 | 36348 ft | 472 kts | 348° |
| 2026-05-04 16:45 | 29.93905 | -82.68997 | 36795 ft | 474 kts | 348° |
| 2026-05-04 16:46 | 30.03811 | -82.68935 | 37439 ft | 476 kts | 348° |
| 2026-05-04 16:46 | 30.10474 | -82.68906 | 37838 ft | 478 kts | 348° |
| 2026-05-04 16:47 | 30.17135 | -82.68859 | 38251 ft | 480 kts | 348° |
| 2026-05-04 16:47 | 30.23826 | -82.68813 | 38619 ft | 482 kts | 348° |
| 2026-05-04 16:48 | 30.33909 | -82.68743 | 39116 ft | 484 kts | 348° |
| 2026-05-04 16:48 | 30.37289 | -82.68721 | 39157 ft | 484 kts | 348° |
| 2026-05-04 16:49 | 30.50743 | -82.68556 | 39161 ft | 492 kts | 353° |
| 2026-05-04 16:50 | 30.57628 | -82.67226 | 39161 ft | 503 kts | 359° |
| 2026-05-04 16:50 | 30.64484 | -82.65760 | 39168 ft | 504 kts | 359° |
| 2026-05-04 16:51 | 30.74872 | -82.63520 | 39158 ft | 505 kts | 359° |
| 2026-05-04 16:52 | 30.88664 | -82.60574 | 39170 ft | 506 kts | 359° |
| 2026-05-04 16:53 | 30.99092 | -82.58345 | 39178 ft | 507 kts | 359° |
| 2026-05-04 16:54 | 31.12980 | -82.55483 | 39170 ft | 504 kts | 356° |
| 2026-05-04 16:55 | 31.33748 | -82.52588 | 39168 ft | 503 kts | 355° |
| 2026-05-04 16:56 | 31.51140 | -82.49944 | 39175 ft | 504 kts | 355° |
| 2026-05-04 16:57 | 31.61565 | -82.48385 | 39177 ft | 504 kts | 355° |
| 2026-05-04 16:58 | 31.74006 | -82.46529 | 39124 ft | 498 kts | 354° |
| 2026-05-04 17:00 | 31.94632 | -82.43392 | 39117 ft | 497 kts | 354° |
| 2026-05-04 17:01 | 32.11826 | -82.40788 | 39133 ft | 500 kts | 354° |
| 2026-05-04 17:02 | 32.24458 | -82.38866 | 39154 ft | 500 kts | 354° |
| 2026-05-04 17:03 | 32.34804 | -82.37289 | 39162 ft | 500 kts | 354° |
| 2026-05-04 17:03 | 32.45132 | -82.35668 | 39478 ft | 497 kts | 355° |
| 2026-05-04 17:04 | 32.58787 | -82.33605 | 39150 ft | 493 kts | 354° |
| 2026-05-04 17:05 | 32.72337 | -82.31540 | 39129 ft | 492 kts | 355° |
| 2026-05-04 17:06 | 32.82528 | -82.29959 | 39124 ft | 490 kts | 355° |
| 2026-05-04 17:07 | 32.91543 | -82.28566 | 39130 ft | 489 kts | 355° |
| 2026-05-04 17:07 | 32.99405 | -82.27351 | 39148 ft | 489 kts | 355° |
| 2026-05-04 17:08 | 33.09501 | -82.25789 | 39154 ft | 488 kts | 355° |
| 2026-05-04 17:09 | 33.16206 | -82.24746 | 39152 ft | 487 kts | 355° |
| 2026-05-04 17:09 | 33.22949 | -82.23694 | 39157 ft | 486 kts | 355° |
| 2026-05-04 17:10 | 33.39669 | -82.21071 | 39165 ft | 484 kts | 356° |
| 2026-05-04 17:11 | 33.46368 | -82.20022 | 39167 ft | 483 kts | 356° |
| 2026-05-04 17:12 | 33.56341 | -82.18467 | 39164 ft | 482 kts | 356° |
| 2026-05-04 17:13 | 33.72940 | -82.15858 | 39157 ft | 480 kts | 356° |
| 2026-05-04 17:14 | 33.86164 | -82.13520 | 39159 ft | 480 kts | 358° |
| 2026-05-04 17:15 | 33.96096 | -82.11757 | 39159 ft | 479 kts | 358° |
| 2026-05-04 17:16 | 34.09278 | -82.09446 | 39159 ft | 479 kts | 358° |
| 2026-05-04 17:17 | 34.22453 | -82.07131 | 39164 ft | 478 kts | 358° |
| 2026-05-04 17:18 | 34.35613 | -82.04805 | 39162 ft | 477 kts | 358° |
| 2026-05-04 17:19 | 34.48726 | -82.02474 | 39152 ft | 476 kts | 358° |
| 2026-05-04 17:20 | 34.61771 | -82.00143 | 39149 ft | 474 kts | 358° |
| 2026-05-04 17:20 | 34.71564 | -81.98400 | 39150 ft | 473 kts | 358° |
| 2026-05-04 17:21 | 34.84565 | -81.96074 | 39140 ft | 472 kts | 358° |
| 2026-05-04 17:22 | 34.91082 | -81.94901 | 39138 ft | 471 kts | 358° |
| 2026-05-04 17:23 | 35.04031 | -81.92661 | 39129 ft | 463 kts | 353° |
| 2026-05-04 17:24 | 35.13654 | -81.92219 | 39125 ft | 460 kts | 352° |
| 2026-05-04 17:25 | 35.26452 | -81.91635 | 39132 ft | 460 kts | 352° |
| 2026-05-04 17:26 | 35.39196 | -81.91056 | 39137 ft | 459 kts | 352° |
| 2026-05-04 17:27 | 35.55140 | -81.90324 | 39130 ft | 458 kts | 353° |
| 2026-05-04 17:28 | 35.67863 | -81.89741 | 39111 ft | 457 kts | 353° |
| 2026-05-04 17:29 | 35.86898 | -81.88862 | 39121 ft | 456 kts | 353° |
| 2026-05-04 17:31 | 36.02658 | -81.88115 | 39079 ft | 447 kts | 355° |
| 2026-05-04 17:32 | 36.18099 | -81.87409 | 39075 ft | 442 kts | 355° |
| 2026-05-04 17:33 | 36.30387 | -81.86839 | 39081 ft | 441 kts | 355° |
| 2026-05-04 17:34 | 36.42673 | -81.86259 | 39097 ft | 442 kts | 355° |
| 2026-05-04 17:35 | 36.58030 | -81.85533 | 39118 ft | 442 kts | 355° |
| 2026-05-04 17:36 | 36.64203 | -81.85247 | 39123 ft | 442 kts | 355° |
| 2026-05-04 17:36 | 36.70334 | -81.84960 | 39120 ft | 442 kts | 355° |
| 2026-05-04 17:37 | 36.76499 | -81.84670 | 39122 ft | 442 kts | 355° |
| 2026-05-04 17:37 | 36.82634 | -81.84376 | 39114 ft | 442 kts | 355° |
| 2026-05-04 17:38 | 36.88769 | -81.84080 | 39128 ft | 442 kts | 355° |
| 2026-05-04 17:38 | 36.93895 | -81.83837 | 39129 ft | 442 kts | 355° |
| 2026-05-04 17:39 | 37.03143 | -81.83395 | 39120 ft | 442 kts | 355° |
| 2026-05-04 17:39 | 37.09257 | -81.83104 | 39121 ft | 442 kts | 355° |
| 2026-05-04 17:40 | 37.15442 | -81.82807 | 39126 ft | 442 kts | 355° |
| 2026-05-04 17:40 | 37.21572 | -81.82516 | 39112 ft | 442 kts | 355° |
| 2026-05-04 17:41 | 37.27726 | -81.82216 | 39096 ft | 442 kts | 355° |
| 2026-05-04 17:41 | 37.33840 | -81.81921 | 39078 ft | 441 kts | 355° |
| 2026-05-04 17:42 | 37.39989 | -81.81624 | 39062 ft | 441 kts | 355° |
| 2026-05-04 17:42 | 37.46122 | -81.81324 | 39052 ft | 441 kts | 355° |
| 2026-05-04 17:43 | 37.52225 | -81.81031 | 39044 ft | 440 kts | 355° |
| 2026-05-04 17:43 | 37.58386 | -81.80735 | 39047 ft | 441 kts | 355° |
| 2026-05-04 17:44 | 37.64493 | -81.80437 | 39040 ft | 440 kts | 355° |
| 2026-05-04 17:44 | 37.70595 | -81.80151 | 39034 ft | 439 kts | 356° |
| 2026-05-04 17:45 | 37.76733 | -81.79853 | 39031 ft | 439 kts | 356° |
| 2026-05-04 17:45 | 37.82816 | -81.79549 | 39045 ft | 438 kts | 356° |
| 2026-05-04 17:46 | 37.88919 | -81.79254 | 39028 ft | 437 kts | 356° |
| 2026-05-04 17:46 | 37.94968 | -81.78962 | 39019 ft | 436 kts | 356° |
| 2026-05-04 17:47 | 38.01052 | -81.78661 | 39013 ft | 436 kts | 356° |
| 2026-05-04 17:47 | 38.07094 | -81.78361 | 39008 ft | 435 kts | 356° |
| 2026-05-04 17:48 | 38.13170 | -81.78066 | 39007 ft | 435 kts | 356° |
| 2026-05-04 17:48 | 38.19203 | -81.77773 | 39010 ft | 435 kts | 357° |
| 2026-05-04 17:49 | 38.25262 | -81.77475 | 39010 ft | 435 kts | 357° |
| 2026-05-04 17:49 | 38.31302 | -81.77175 | 39013 ft | 435 kts | 357° |
| 2026-05-04 17:50 | 38.37291 | -81.75989 | 39011 ft | 445 kts | 13° |
| 2026-05-04 17:50 | 38.43182 | -81.73401 | 39013 ft | 446 kts | 13° |
| 2026-05-04 17:51 | 38.49026 | -81.70833 | 39006 ft | 446 kts | 14° |
| 2026-05-04 17:51 | 38.54924 | -81.68236 | 38998 ft | 447 kts | 14° |
| 2026-05-04 17:52 | 38.60785 | -81.65646 | 38988 ft | 447 kts | 14° |
| 2026-05-04 17:52 | 38.66660 | -81.63046 | 38986 ft | 448 kts | 14° |
| 2026-05-04 17:53 | 38.72584 | -81.60426 | 38977 ft | 448 kts | 14° |
| 2026-05-04 17:53 | 38.78459 | -81.57827 | 38977 ft | 449 kts | 14° |
| 2026-05-04 17:54 | 38.84347 | -81.55215 | 38972 ft | 449 kts | 14° |
| 2026-05-04 17:54 | 38.90276 | -81.52580 | 38973 ft | 449 kts | 14° |
| 2026-05-04 17:55 | 38.96174 | -81.49951 | 38968 ft | 449 kts | 14° |
| 2026-05-04 17:55 | 39.02076 | -81.47309 | 38968 ft | 449 kts | 14° |
| 2026-05-04 17:56 | 39.08001 | -81.44665 | 38962 ft | 449 kts | 14° |
| 2026-05-04 17:56 | 39.13878 | -81.42037 | 38962 ft | 449 kts | 14° |
| 2026-05-04 17:57 | 39.19758 | -81.39399 | 38961 ft | 449 kts | 14° |
| 2026-05-04 17:57 | 39.25662 | -81.36741 | 38961 ft | 448 kts | 14° |
| 2026-05-04 17:58 | 39.31520 | -81.34095 | 38962 ft | 447 kts | 14° |
| 2026-05-04 17:58 | 39.37412 | -81.31441 | 38962 ft | 446 kts | 14° |
| 2026-05-04 17:59 | 39.43253 | -81.28801 | 38957 ft | 446 kts | 14° |
| 2026-05-04 18:00 | 39.52060 | -81.24815 | 38952 ft | 446 kts | 14° |
| 2026-05-04 18:00 | 39.57907 | -81.22197 | 38953 ft | 445 kts | 14° |
| 2026-05-04 18:01 | 39.63755 | -81.19648 | 38949 ft | 444 kts | 14° |
| 2026-05-04 18:01 | 39.69610 | -81.17089 | 38951 ft | 444 kts | 14° |
| 2026-05-04 18:02 | 39.78375 | -81.13224 | 38948 ft | 443 kts | 14° |
| 2026-05-04 18:02 | 39.84227 | -81.10632 | 38944 ft | 443 kts | 14° |
| 2026-05-04 18:03 | 39.90048 | -81.08052 | 38935 ft | 442 kts | 13° |
| 2026-05-04 18:03 | 39.95891 | -81.05466 | 38933 ft | 442 kts | 13° |
| 2026-05-04 18:04 | 40.01692 | -81.02889 | 38930 ft | 441 kts | 13° |
| 2026-05-04 18:05 | 40.10386 | -80.99009 | 38925 ft | 440 kts | 13° |
| 2026-05-04 18:05 | 40.16192 | -80.96413 | 38920 ft | 439 kts | 13° |
| 2026-05-04 18:06 | 40.24848 | -80.92551 | 38919 ft | 438 kts | 13° |
| 2026-05-04 18:06 | 40.30603 | -80.89979 | 38916 ft | 438 kts | 13° |
| 2026-05-04 18:07 | 40.36299 | -80.87411 | 38873 ft | 425 kts | 13° |
| 2026-05-04 18:07 | 40.41911 | -80.84865 | 38887 ft | 430 kts | 13° |
| 2026-05-04 18:08 | 40.47584 | -80.82330 | 38886 ft | 434 kts | 13° |
| 2026-05-04 18:08 | 40.53302 | -80.79761 | 38882 ft | 436 kts | 13° |
| 2026-05-04 18:09 | 40.64772 | -80.74546 | 38882 ft | 437 kts | 13° |
| 2026-05-04 18:10 | 40.70540 | -80.71923 | 38886 ft | 437 kts | 13° |
| 2026-05-04 18:10 | 40.76272 | -80.69319 | 38880 ft | 438 kts | 13° |
| 2026-05-04 18:11 | 40.82059 | -80.66693 | 38882 ft | 438 kts | 13° |
| 2026-05-04 18:11 | 40.87804 | -80.64074 | 38883 ft | 439 kts | 13° |
| 2026-05-04 18:12 | 40.93599 | -80.61418 | 38878 ft | 440 kts | 13° |
| 2026-05-04 18:12 | 40.99374 | -80.58768 | 38878 ft | 441 kts | 13° |
| 2026-05-04 18:13 | 41.05189 | -80.56096 | 38878 ft | 441 kts | 13° |
| 2026-05-04 18:14 | 41.13897 | -80.52100 | 38878 ft | 442 kts | 13° |
| 2026-05-04 18:14 | 41.19623 | -80.49150 | 38862 ft | 450 kts | 22° |
| 2026-05-04 18:15 | 41.30135 | -80.39655 | 38865 ft | 457 kts | 28° |
| 2026-05-04 18:16 | 41.35344 | -80.34836 | 38867 ft | 458 kts | 28° |
| 2026-05-04 18:16 | 41.40589 | -80.30000 | 38865 ft | 458 kts | 28° |
| 2026-05-04 18:17 | 41.48445 | -80.22723 | 38862 ft | 458 kts | 28° |
| 2026-05-04 18:18 | 41.56254 | -80.15457 | 38859 ft | 458 kts | 28° |
| 2026-05-04 18:18 | 41.58877 | -80.13008 | 38551 ft | 458 kts | 28° |
| 2026-05-04 18:18 | 41.61509 | -80.10554 | 37609 ft | 460 kts | 29° |
| 2026-05-04 18:18 | 41.64128 | -80.08111 | 36924 ft | 456 kts | 29° |
| 2026-05-04 18:19 | 41.69294 | -80.03282 | 35182 ft | 455 kts | 30° |
| 2026-05-04 18:19 | 41.71902 | -80.00839 | 34244 ft | 456 kts | 30° |
| 2026-05-04 18:19 | 41.74499 | -79.98402 | 33153 ft | 456 kts | 30° |
| 2026-05-04 18:20 | 41.77110 | -79.95951 | 31988 ft | 458 kts | 30° |
| 2026-05-04 18:20 | 41.79694 | -79.93523 | 30834 ft | 461 kts | 30° |
| 2026-05-04 18:20 | 41.82333 | -79.91042 | 29884 ft | 461 kts | 30° |
| 2026-05-04 18:20 | 41.84914 | -79.88602 | 29648 ft | 444 kts | 30° |
| 2026-05-04 18:21 | 41.87380 | -79.86257 | 29469 ft | 422 kts | 30° |
| 2026-05-04 18:21 | 41.89763 | -79.83991 | 28409 ft | 420 kts | 30° |
| 2026-05-04 18:21 | 41.92162 | -79.81729 | 27298 ft | 421 kts | 30° |
| 2026-05-04 18:21 | 41.94521 | -79.79510 | 26353 ft | 418 kts | 30° |
| 2026-05-04 18:22 | 41.96915 | -79.77259 | 25562 ft | 417 kts | 29° |
| 2026-05-04 18:22 | 41.99285 | -79.75026 | 24871 ft | 410 kts | 29° |
| 2026-05-04 18:22 | 42.01592 | -79.72840 | 23873 ft | 406 kts | 29° |
| 2026-05-04 18:22 | 42.03904 | -79.70644 | 23122 ft | 406 kts | 29° |
| 2026-05-04 18:23 | 42.06219 | -79.68443 | 22447 ft | 407 kts | 30° |
| 2026-05-04 18:23 | 42.08532 | -79.66246 | 21834 ft | 405 kts | 30° |
| 2026-05-04 18:23 | 42.10810 | -79.64080 | 21256 ft | 402 kts | 30° |
| 2026-05-04 18:23 | 42.13088 | -79.61909 | 20688 ft | 400 kts | 30° |
| 2026-05-04 18:24 | 42.15332 | -79.59770 | 20133 ft | 397 kts | 30° |
| 2026-05-04 18:24 | 42.17580 | -79.57619 | 19588 ft | 394 kts | 31° |
| 2026-05-04 18:24 | 42.19064 | -79.56199 | 19231 ft | 393 kts | 31° |
| 2026-05-04 18:24 | 42.21297 | -79.54063 | 18684 ft | 390 kts | 31° |
| 2026-05-04 18:25 | 42.23517 | -79.51943 | 18207 ft | 386 kts | 31° |
| 2026-05-04 18:25 | 42.25670 | -79.49884 | 17776 ft | 380 kts | 31° |
| 2026-05-04 18:25 | 42.27839 | -79.47809 | 17142 ft | 380 kts | 31° |
| 2026-05-04 18:25 | 42.29996 | -79.45742 | 16561 ft | 379 kts | 31° |
| 2026-05-04 18:26 | 42.32123 | -79.43702 | 16090 ft | 375 kts | 31° |
| 2026-05-04 18:26 | 42.34254 | -79.41660 | 15455 ft | 376 kts | 31° |
| 2026-05-04 18:26 | 42.36338 | -79.39656 | 15067 ft | 357 kts | 31° |
| 2026-05-04 18:26 | 42.38314 | -79.37748 | 14373 ft | 349 kts | 31° |
| 2026-05-04 18:27 | 42.40292 | -79.35839 | 13668 ft | 346 kts | 32° |
| 2026-05-04 18:27 | 42.42250 | -79.33952 | 13037 ft | 342 kts | 32° |
| 2026-05-04 18:27 | 42.44145 | -79.32123 | 12471 ft | 337 kts | 32° |
| 2026-05-04 18:27 | 42.46055 | -79.30280 | 11909 ft | 333 kts | 32° |
| 2026-05-04 18:28 | 42.47897 | -79.28499 | 11508 ft | 317 kts | 32° |
| 2026-05-04 18:28 | 42.49572 | -79.26550 | 10870 ft | 316 kts | 44° |
| 2026-05-04 18:28 | 42.50993 | -79.24331 | 10654 ft | 315 kts | 46° |
| 2026-05-04 18:28 | 42.52438 | -79.22066 | 10420 ft | 315 kts | 46° |
| 2026-05-04 18:29 | 42.53879 | -79.19827 | 10179 ft | 314 kts | 46° |
| 2026-05-04 18:29 | 42.55301 | -79.17623 | 9927 ft | 313 kts | 46° |
| 2026-05-04 18:29 | 42.56733 | -79.15405 | 9683 ft | 312 kts | 46° |
| 2026-05-04 18:29 | 42.58158 | -79.13190 | 9431 ft | 311 kts | 46° |
| 2026-05-04 18:30 | 42.61068 | -79.08628 | 8936 ft | 348 kts | 47° |
| 2026-05-04 18:30 | 42.62677 | -79.06113 | 8708 ft | 367 kts | 47° |
| 2026-05-04 18:30 | 42.64326 | -79.03533 | 8464 ft | 348 kts | 47° |
| 2026-05-04 18:31 | 42.65846 | -79.01140 | 8251 ft | 319 kts | 47° |
| 2026-05-04 18:31 | 42.67244 | -78.98933 | 7791 ft | 305 kts | 47° |
| 2026-05-04 18:31 | 42.68637 | -78.96746 | 7619 ft | 306 kts | 47° |
| 2026-05-04 18:31 | 42.70035 | -78.94554 | 7394 ft | 305 kts | 47° |
| 2026-05-04 18:32 | 42.71428 | -78.92368 | 7151 ft | 305 kts | 47° |
| 2026-05-04 18:32 | 42.72806 | -78.90201 | 6918 ft | 304 kts | 47° |
| 2026-05-04 18:32 | 42.74196 | -78.88011 | 6683 ft | 303 kts | 47° |
| 2026-05-04 18:32 | 42.75558 | -78.85858 | 6446 ft | 303 kts | 47° |
| 2026-05-04 18:33 | 42.76938 | -78.83676 | 6209 ft | 302 kts | 47° |
| 2026-05-04 18:33 | 42.78290 | -78.81536 | 6013 ft | 287 kts | 47° |
| 2026-05-04 18:33 | 42.79539 | -78.79554 | 5897 ft | 271 kts | 47° |
| 2026-05-04 18:33 | 42.80747 | -78.77638 | 5761 ft | 262 kts | 48° |
| 2026-05-04 18:34 | 42.81932 | -78.75760 | 5660 ft | 260 kts | 47° |
| 2026-05-04 18:34 | 42.83113 | -78.73891 | 5552 ft | 259 kts | 47° |
| 2026-05-04 18:34 | 42.84277 | -78.72047 | 5437 ft | 259 kts | 48° |
| 2026-05-04 18:34 | 42.85451 | -78.70187 | 5326 ft | 258 kts | 47° |
| 2026-05-04 18:35 | 42.86614 | -78.68348 | 5218 ft | 251 kts | 48° |
| 2026-05-04 18:35 | 42.87726 | -78.66587 | 5117 ft | 242 kts | 47° |
| 2026-05-04 18:35 | 42.88819 | -78.64873 | 5015 ft | 237 kts | 44° |
| 2026-05-04 18:35 | 42.90007 | -78.63309 | 4697 ft | 236 kts | 42° |
| 2026-05-04 18:36 | 42.91181 | -78.61766 | 4386 ft | 232 kts | 42° |
| 2026-05-04 18:36 | 42.92333 | -78.60250 | 4092 ft | 228 kts | 43° |
| 2026-05-04 18:36 | 42.93590 | -78.58961 | 3795 ft | 224 kts | 22° |
| 2026-05-04 18:36 | 42.95016 | -78.58413 | 3547 ft | 209 kts | 359° |
| 2026-05-04 18:37 | 42.96398 | -78.58544 | 3281 ft | 191 kts | 337° |
| 2026-05-04 18:37 | 42.97598 | -78.59215 | 3040 ft | 180 kts | 319° |
| 2026-05-04 18:37 | 42.98502 | -78.60183 | 2836 ft | 149 kts | 302° |
| 2026-05-04 18:37 | 42.99096 | -78.61232 | 2669 ft | 135 kts | 291° |
| 2026-05-04 18:38 | 42.99469 | -78.62351 | 2496 ft | 128 kts | 277° |
| 2026-05-04 18:38 | 42.99607 | -78.63530 | 2340 ft | 123 kts | 266° |
| 2026-05-04 18:38 | 42.99531 | -78.64666 | 2163 ft | 118 kts | 253° |
| 2026-05-04 18:38 | 42.99262 | -78.65711 | 2038 ft | 119 kts | 243° |
| 2026-05-04 18:39 | 42.98817 | -78.66653 | 1868 ft | 118 kts | 230° |
| 2026-05-04 18:39 | 42.98250 | -78.67438 | 1712 ft | 117 kts | 223° |
| 2026-05-04 18:39 | 42.97654 | -78.68217 | 1543 ft | 119 kts | 225° |
| 2026-05-04 18:39 | 42.97058 | -78.68997 | 1384 ft | 120 kts | 226° |
| 2026-05-04 18:40 | 42.96444 | -78.69804 | 1211 ft | 123 kts | 228° |
| 2026-05-04 18:40 | 42.95828 | -78.70634 | 1002 ft | 123 kts | 227° |
| 2026-05-04 18:40 | 42.95205 | -78.71439 | 901 ft | 125 kts | 225° |
| 2026-05-04 18:40 | 42.94581 | -78.72263 | 731 ft | 120 kts | 224° |
| 2026-05-04 18:41 | 42.94114 | -78.72875 | 716 ft | 68 kts | 223° |
| 2026-05-04 18:41 | 42.93889 | -78.73169 | 716 ft | 18 kts | 224° |
| 2026-05-04 18:41 | 42.93853 | -78.73285 | 713 ft | 9 kts | 315° |
| 2026-05-04 18:41 | 42.93900 | -78.73288 | 711 ft | 8 kts | 0° |
| 2026-05-04 18:42 | 42.93971 | -78.73287 | 716 ft | 12 kts | 0° |
| 2026-05-04 18:42 | 42.94063 | -78.73288 | 716 ft | 14 kts | 355° |
| 2026-05-04 18:42 | 42.94150 | -78.73379 | 715 ft | 19 kts | 306° |
| 2026-05-04 18:42 | 42.94226 | -78.73514 | 713 ft | 15 kts | 317° |
| 2026-05-04 18:43 | 42.94332 | -78.73494 | 713 ft | 18 kts | 4° |
| 2026-05-04 18:43 | 42.94446 | -78.73502 | 715 ft | 14 kts | 2° |
| 2026-05-04 18:43 | 42.94536 | -78.73452 | 716 ft | 13 kts | 35° |
| 2026-05-04 18:43 | 42.94623 | -78.73383 | 714 ft | 13 kts | 356° |
| 2026-05-04 18:44 | 42.94656 | -78.73465 | 712 ft | 12 kts | 297° |
| 2026-05-04 18:44 | 42.94688 | -78.73541 | 715 ft | 11 kts | 309° |
| 2026-05-04 18:44 | 42.94712 | -78.73524 | 712 ft | 4 kts | 93° |
| 2026-05-04 18:44 | 42.94732 | -78.73494 | 714 ft | 0 kts | 33° |